createdAt,value
2018-07-24T06:00:35.145Z,1004.02
2018-07-24T06:01:35.104Z,1003.91
2018-07-24T06:02:35.125Z,1004.00
2018-07-24T06:03:35.098Z,1004.00
2018-07-24T06:04:35.058Z,1004.00
2018-07-24T06:05:35.045Z,1003.98
2018-07-24T06:06:35.034Z,1003.99
2018-07-24T06:07:35.071Z,1003.98
2018-07-24T06:08:35.014Z,1004.03
2018-07-24T06:09:35.001Z,1003.98
2018-07-24T06:10:34.993Z,1003.97
2018-07-24T06:11:34.979Z,1004.00
2018-07-24T06:12:35.014Z,1003.97
2018-07-24T06:13:34.966Z,1003.98
2018-07-24T06:14:34.946Z,1004.03
2018-07-24T06:15:34.934Z,1003.97
2018-07-24T06:16:34.930Z,1004.01
2018-07-24T06:17:34.960Z,1004.01
2018-07-24T06:18:34.909Z,1003.93
2018-07-24T06:19:34.892Z,1003.95
2018-07-24T06:20:34.883Z,1003.91
2018-07-24T06:21:34.874Z,1003.95
2018-07-24T06:22:34.862Z,1003.90
2018-07-24T06:23:34.929Z,1003.90
2018-07-24T06:24:34.840Z,1003.90
2018-07-24T06:25:34.835Z,1003.84
2018-07-24T06:26:34.822Z,1003.88
2018-07-24T06:27:34.805Z,1003.92
2018-07-24T06:28:34.847Z,1003.87
2018-07-24T06:29:34.783Z,1003.88
2018-07-24T06:30:34.772Z,1003.88
2018-07-24T06:31:34.764Z,1003.95
2018-07-24T06:32:34.754Z,1003.94
2018-07-24T06:33:34.786Z,1003.93
2018-07-24T06:34:34.728Z,1003.95
2018-07-24T06:35:34.725Z,1003.95
2018-07-24T06:36:34.705Z,1003.95
2018-07-24T06:37:34.696Z,1003.94
2018-07-24T06:38:34.736Z,1003.96
2018-07-24T06:39:34.683Z,1003.95
2018-07-24T06:40:34.664Z,1003.91
2018-07-24T06:41:34.652Z,1003.92
2018-07-24T06:42:34.641Z,1003.96
2018-07-24T06:43:34.698Z,1003.92
2018-07-24T06:44:34.632Z,1003.97
2018-07-24T06:45:34.608Z,1003.95
2018-07-24T06:46:34.685Z,1003.93
2018-07-24T06:47:34.625Z,1003.93
2018-07-24T06:48:34.667Z,1003.95
2018-07-24T06:49:34.569Z,1003.99
2018-07-24T06:50:34.552Z,1003.98
2018-07-24T06:51:34.622Z,1003.98
2018-07-24T06:52:34.529Z,1004.01
2018-07-24T06:53:34.563Z,1004.04
2018-07-24T06:54:34.512Z,1004.04
2018-07-24T06:55:34.506Z,1004.00
2018-07-24T06:56:34.495Z,1004.02
2018-07-24T06:57:34.476Z,1004.03
2018-07-24T06:58:34.507Z,1004.05
2018-07-24T06:59:34.451Z,1004.03
2018-07-24T07:00:34.442Z,1004.01
2018-07-24T07:01:34.429Z,1004.00
2018-07-24T07:02:34.417Z,1004.02
2018-07-24T07:03:34.460Z,1003.98
2018-07-24T07:04:34.397Z,1004.00
2018-07-24T07:05:34.387Z,1003.99
2018-07-24T07:06:34.380Z,1003.95
2018-07-24T07:07:34.380Z,1004.00
2018-07-24T07:08:34.397Z,1003.99
2018-07-24T07:09:34.357Z,1003.98
2018-07-24T07:10:34.330Z,1003.96
2018-07-24T07:11:34.318Z,1003.95
2018-07-24T07:12:34.320Z,1003.96
2018-07-24T07:13:34.412Z,1003.97
2018-07-24T07:14:34.287Z,1004.00
2018-07-24T07:15:34.273Z,1004.01
2018-07-24T07:16:34.263Z,1003.95
2018-07-24T07:17:34.253Z,1003.92
2018-07-24T07:18:34.289Z,1003.94
2018-07-24T07:19:34.229Z,1003.95
2018-07-24T07:20:34.359Z,1003.92
2018-07-24T07:21:34.210Z,1003.92
2018-07-24T07:22:34.197Z,1003.89
2018-07-24T07:23:34.236Z,1003.91
2018-07-24T07:24:34.174Z,1003.92
2018-07-24T07:25:34.164Z,1003.94
2018-07-24T07:26:34.156Z,1003.91
2018-07-24T07:27:34.140Z,1003.88
2018-07-24T07:28:34.174Z,1003.89
2018-07-24T07:29:34.117Z,1003.89
2018-07-24T07:30:34.109Z,1003.87
2018-07-24T07:31:34.095Z,1003.91
2018-07-24T07:32:34.142Z,1003.90
2018-07-24T07:33:34.118Z,1003.89
2018-07-24T07:34:34.065Z,1003.92
2018-07-24T07:35:34.051Z,1003.92
2018-07-24T07:36:34.041Z,1003.94
2018-07-24T07:37:34.029Z,1003.91
2018-07-24T07:38:34.061Z,1003.93
2018-07-24T07:39:34.007Z,1003.87
2018-07-24T07:40:33.997Z,1003.87
2018-07-24T07:41:33.988Z,1003.87
2018-07-24T07:42:33.988Z,1003.88
2018-07-24T07:43:34.009Z,1003.83
2018-07-24T07:44:33.974Z,1003.84
2018-07-24T07:45:33.941Z,1003.82
2018-07-24T07:46:33.946Z,1003.84
2018-07-24T07:47:33.921Z,1003.83
2018-07-24T07:48:33.962Z,1003.82
2018-07-24T07:49:33.897Z,1003.82
2018-07-24T07:50:33.887Z,1003.81
2018-07-24T07:51:33.913Z,1003.83
2018-07-24T07:52:33.911Z,1003.82
2018-07-24T07:53:33.903Z,1003.76
2018-07-24T07:54:33.855Z,1003.77
2018-07-24T07:55:33.831Z,1003.81
2018-07-24T07:56:33.820Z,1003.80
2018-07-24T07:57:33.814Z,1003.85
2018-07-24T07:58:33.841Z,1003.80
2018-07-24T07:59:33.787Z,1003.79
2018-07-24T08:00:33.775Z,1003.77
2018-07-24T08:01:33.762Z,1003.82
2018-07-24T08:02:33.805Z,1003.78
2018-07-24T08:03:33.791Z,1003.80
2018-07-24T08:04:33.729Z,1003.78
2018-07-24T08:05:33.718Z,1003.81
2018-07-24T08:06:33.710Z,1003.82
2018-07-24T08:07:33.700Z,1003.75
2018-07-24T08:08:33.735Z,1003.77
2018-07-24T08:09:33.675Z,1003.73
2018-07-24T08:10:33.662Z,1003.71
2018-07-24T08:11:33.652Z,1003.67
2018-07-24T08:12:33.643Z,1003.68
2018-07-24T08:13:33.680Z,1003.70
2018-07-24T08:14:33.619Z,1003.70
2018-07-24T08:15:33.610Z,1003.73
2018-07-24T08:16:33.596Z,1003.70
2018-07-24T08:17:33.585Z,1003.72
2018-07-24T08:18:33.625Z,1003.72
2018-07-24T08:19:33.566Z,1003.73
2018-07-24T08:20:33.551Z,1003.71
2018-07-24T08:21:33.543Z,1003.64
2018-07-24T08:22:33.534Z,1003.67
2018-07-24T08:23:33.563Z,1003.64
2018-07-24T08:24:33.509Z,1003.68
2018-07-24T08:25:33.500Z,1003.68
2018-07-24T08:26:33.487Z,1003.68
2018-07-24T08:27:33.474Z,1003.73
2018-07-24T08:28:33.465Z,1003.67
2018-07-24T08:29:33.501Z,1003.71
2018-07-24T08:30:33.441Z,1003.69
2018-07-24T08:31:33.432Z,1003.73
2018-07-24T08:32:33.420Z,1003.70
2018-07-24T08:33:33.414Z,1003.71
2018-07-24T08:34:33.444Z,1003.70
2018-07-24T08:35:33.393Z,1003.67
2018-07-24T08:36:33.389Z,1003.68
2018-07-24T08:37:33.365Z,1003.70
2018-07-24T08:38:33.354Z,1003.65
2018-07-24T08:39:33.391Z,1003.68
2018-07-24T08:40:33.332Z,1003.66
2018-07-24T08:41:33.325Z,1003.69
2018-07-24T08:42:33.351Z,1003.69
2018-07-24T08:43:33.297Z,1003.70
2018-07-24T08:44:33.340Z,1003.69
2018-07-24T08:45:33.276Z,1003.67
2018-07-24T08:46:33.263Z,1003.72
2018-07-24T08:47:33.255Z,1003.64
2018-07-24T08:48:33.254Z,1003.68
2018-07-24T08:49:33.281Z,1003.66
2018-07-24T08:50:33.221Z,1003.63
2018-07-24T08:51:33.210Z,1003.62
2018-07-24T08:52:33.240Z,1003.65
2018-07-24T08:53:33.562Z,1003.61
2018-07-24T08:54:33.388Z,1003.62
2018-07-24T08:55:33.546Z,1003.61
2018-07-24T08:56:33.159Z,1003.64
2018-07-24T08:57:33.144Z,1003.59
2018-07-24T08:58:33.132Z,1003.57
2018-07-24T08:59:33.172Z,1003.54
2018-07-24T09:00:33.169Z,1003.55
2018-07-24T09:01:33.100Z,1003.51
2018-07-24T09:02:33.099Z,1003.55
2018-07-24T09:03:33.151Z,1003.51
2018-07-24T09:04:33.112Z,1003.51
2018-07-24T09:05:33.057Z,1003.52
2018-07-24T09:06:33.044Z,1003.55
2018-07-24T09:07:33.033Z,1003.56
2018-07-24T09:08:33.022Z,1003.52
2018-07-24T09:09:33.057Z,1003.47
2018-07-24T09:10:33.005Z,1003.49
2018-07-24T09:11:32.989Z,1003.46
2018-07-24T09:12:32.983Z,1003.43
2018-07-24T09:13:32.969Z,1003.46
2018-07-24T09:14:33.004Z,1003.46
2018-07-24T09:15:32.962Z,1003.44
2018-07-24T09:16:32.936Z,1003.46
2018-07-24T09:17:32.928Z,1003.43
2018-07-24T09:18:32.911Z,1003.44
2018-07-24T09:19:32.953Z,1003.44
2018-07-24T09:20:32.890Z,1003.42
2018-07-24T09:21:32.887Z,1003.41
2018-07-24T09:22:32.873Z,1003.41
2018-07-24T09:23:32.856Z,1003.42
2018-07-24T09:24:32.892Z,1003.42
2018-07-24T09:25:32.841Z,1003.43
2018-07-24T09:26:32.823Z,1003.45
2018-07-24T09:27:32.813Z,1003.45
2018-07-24T09:28:32.804Z,1003.41
2018-07-24T09:29:32.835Z,1003.38
2018-07-24T09:30:32.795Z,1003.37
2018-07-24T09:31:32.768Z,1003.41
2018-07-24T09:32:32.756Z,1003.42
2018-07-24T09:33:32.748Z,1003.39
2018-07-24T09:34:32.779Z,1003.38
2018-07-24T09:35:32.728Z,1003.44
2018-07-24T09:36:32.712Z,1003.40
2018-07-24T09:37:32.703Z,1003.42
2018-07-24T09:38:32.690Z,1003.38
2018-07-24T09:39:32.735Z,1003.34
2018-07-24T09:40:32.712Z,1003.40
2018-07-24T09:41:32.659Z,1003.38
2018-07-24T09:42:32.647Z,1003.41
2018-07-24T09:43:32.635Z,1003.37
2018-07-24T09:44:32.672Z,1003.36
2018-07-24T09:45:32.614Z,1003.39
2018-07-24T09:46:32.603Z,1003.36
2018-07-24T09:47:32.609Z,1003.36
2018-07-24T09:48:32.579Z,1003.32
2018-07-24T09:49:32.617Z,1003.36
2018-07-24T09:50:32.620Z,1003.35
2018-07-24T09:51:32.549Z,1003.34
2018-07-24T09:52:32.541Z,1003.37
2018-07-24T09:53:32.528Z,1003.33
2018-07-24T09:54:32.559Z,1003.31
2018-07-24T09:55:32.504Z,1003.31
2018-07-24T09:56:32.542Z,1003.34
2018-07-24T09:57:32.483Z,1003.34
2018-07-24T09:58:32.471Z,1003.32
2018-07-24T09:59:32.504Z,1003.29
2018-07-24T10:00:32.450Z,1003.28
2018-07-24T10:01:32.441Z,1003.33
2018-07-24T10:02:32.428Z,1003.28
2018-07-24T10:03:32.420Z,1003.31
2018-07-24T10:04:32.457Z,1003.28
2018-07-24T10:05:32.395Z,1003.27
2018-07-24T10:06:32.398Z,1003.25
2018-07-24T10:07:32.379Z,1003.18
2018-07-24T10:08:32.364Z,1003.25
2018-07-24T10:09:32.401Z,1003.18
2018-07-24T10:10:32.340Z,1003.17
2018-07-24T10:11:32.332Z,1003.17
2018-07-24T10:12:32.323Z,1003.22
2018-07-24T10:13:32.310Z,1003.24
2018-07-24T10:14:32.344Z,1003.22
2018-07-24T10:15:32.286Z,1003.16
2018-07-24T10:16:32.334Z,1003.17
2018-07-24T10:17:32.276Z,1003.17
2018-07-24T10:18:32.259Z,1003.19
2018-07-24T10:19:32.289Z,1003.18
2018-07-24T10:20:32.233Z,1003.15
2018-07-24T10:21:32.221Z,1003.12
2018-07-24T10:22:32.210Z,1003.15
2018-07-24T10:23:32.200Z,1003.15
2018-07-24T10:24:32.281Z,1003.19
2018-07-24T10:25:32.177Z,1003.09
2018-07-24T10:26:32.173Z,1003.10
2018-07-24T10:27:32.160Z,1003.10
2018-07-24T10:28:32.148Z,1003.06
2018-07-24T10:29:32.182Z,1003.01
2018-07-24T10:30:32.199Z,1002.99
2018-07-24T10:31:32.114Z,1002.95
2018-07-24T10:32:32.101Z,1002.98
2018-07-24T10:33:32.093Z,1002.93
2018-07-24T10:34:32.124Z,1002.95
2018-07-24T10:35:32.071Z,1002.94
2018-07-24T10:36:32.092Z,1002.95
2018-07-24T10:37:32.049Z,1002.90
2018-07-24T10:38:32.036Z,1002.92
2018-07-24T10:39:32.070Z,1002.92
2018-07-24T10:40:32.014Z,1002.93
2018-07-24T10:41:32.005Z,1002.88
2018-07-24T10:42:31.992Z,1002.87
2018-07-24T10:43:31.979Z,1002.88
2018-07-24T10:44:32.022Z,1002.86
2018-07-24T10:45:31.958Z,1002.83
2018-07-24T10:46:31.947Z,1002.84
2018-07-24T10:47:31.941Z,1002.84
2018-07-24T10:48:31.924Z,1002.81
2018-07-24T10:49:31.916Z,1002.80
2018-07-24T10:50:31.950Z,1002.82
2018-07-24T10:51:31.927Z,1002.78
2018-07-24T10:52:31.882Z,1002.75
2018-07-24T10:53:31.871Z,1002.76
2018-07-24T10:54:31.861Z,1002.75
2018-07-24T10:55:31.908Z,1002.79
2018-07-24T10:56:31.841Z,1002.80
2018-07-24T10:57:31.826Z,1002.77
2018-07-24T10:58:31.816Z,1002.82
2018-07-24T10:59:31.803Z,1002.82
2018-07-24T11:00:31.838Z,1002.73
2018-07-24T11:01:31.784Z,1002.80
2018-07-24T11:02:31.776Z,1002.76
2018-07-24T11:03:31.761Z,1002.73
2018-07-24T11:04:31.751Z,1002.71
2018-07-24T11:05:31.782Z,1002.71
2018-07-24T11:06:31.728Z,1002.73
2018-07-24T11:07:31.719Z,1002.65
2018-07-24T11:08:31.705Z,1002.66
2018-07-24T11:09:31.696Z,1002.65
2018-07-24T11:10:31.730Z,1002.62
2018-07-24T11:11:31.673Z,1002.62
2018-07-24T11:12:31.667Z,1002.65
2018-07-24T11:13:31.653Z,1002.63
2018-07-24T11:14:31.643Z,1002.67
2018-07-24T11:15:31.679Z,1002.65
2018-07-24T11:16:31.645Z,1002.66
2018-07-24T11:17:31.606Z,1002.62
2018-07-24T11:18:31.597Z,1002.61
2018-07-24T11:19:31.587Z,1002.62
2018-07-24T11:20:31.620Z,1002.56
2018-07-24T11:21:31.565Z,1002.56
2018-07-24T11:22:31.665Z,1002.58
2018-07-24T11:23:31.542Z,1002.61
2018-07-24T11:24:31.538Z,1002.57
2018-07-24T11:25:31.564Z,1002.55
2018-07-24T11:26:31.507Z,1002.53
2018-07-24T11:27:31.615Z,1002.56
2018-07-24T11:28:31.489Z,1002.54
2018-07-24T11:29:31.475Z,1002.54
2018-07-24T11:30:31.514Z,1002.48
2018-07-24T11:31:31.452Z,1002.49
2018-07-24T11:32:31.450Z,1002.49
2018-07-24T11:33:31.593Z,1002.44
2018-07-24T11:34:31.420Z,1002.43
2018-07-24T11:35:31.561Z,1002.50
2018-07-24T11:36:31.399Z,1002.48
2018-07-24T11:37:31.390Z,1002.43
2018-07-24T11:38:31.387Z,1002.46
2018-07-24T11:39:31.370Z,1002.45
2018-07-24T11:40:31.400Z,1002.41
2018-07-24T11:41:31.349Z,1002.46
2018-07-24T11:42:31.334Z,1002.38
2018-07-24T11:43:31.324Z,1002.43
2018-07-24T11:44:31.316Z,1002.33
2018-07-24T11:45:31.349Z,1002.37
2018-07-24T11:46:31.296Z,1002.30
2018-07-24T11:47:31.279Z,1002.30
2018-07-24T11:48:31.275Z,1002.30
2018-07-24T11:49:31.273Z,1002.27
2018-07-24T11:50:31.295Z,1002.29
2018-07-24T11:51:31.298Z,1002.30
2018-07-24T11:52:31.224Z,1002.31
2018-07-24T11:53:31.216Z,1002.28
2018-07-24T11:54:31.202Z,1002.24
2018-07-24T11:55:31.244Z,1002.23
2018-07-24T11:56:31.183Z,1002.24
2018-07-24T11:57:31.173Z,1002.21
2018-07-24T11:58:31.184Z,1002.23
2018-07-24T11:59:31.149Z,1002.14
2018-07-24T12:00:31.184Z,1002.17
2018-07-24T12:01:31.133Z,1002.15
2018-07-24T12:02:31.117Z,1002.16
2018-07-24T12:03:31.177Z,1002.17
2018-07-24T12:04:31.099Z,1002.11
2018-07-24T12:05:31.133Z,1002.12
2018-07-24T12:06:31.076Z,1002.11
2018-07-24T12:07:31.069Z,1002.11
2018-07-24T12:08:31.053Z,1002.12
2018-07-24T12:09:31.043Z,1002.08
2018-07-24T12:10:31.076Z,1002.09
2018-07-24T12:11:31.041Z,1002.09
2018-07-24T12:12:31.017Z,1002.09
2018-07-24T12:13:30.998Z,1002.01
2018-07-24T12:14:30.991Z,1002.04
2018-07-24T12:15:31.022Z,1002.03
2018-07-24T12:16:30.965Z,1002.01
2018-07-24T12:17:30.957Z,1002.00
2018-07-24T12:18:30.947Z,1001.99
2018-07-24T12:19:30.979Z,1001.97
2018-07-24T12:20:30.971Z,1001.98
2018-07-24T12:21:30.910Z,1001.96
2018-07-24T12:22:30.900Z,1001.94
2018-07-24T12:23:30.889Z,1001.94
2018-07-24T12:24:30.881Z,1001.96
2018-07-24T12:25:30.912Z,1001.92
2018-07-24T12:26:30.855Z,1001.98
2018-07-24T12:27:30.844Z,1001.92
2018-07-24T12:28:30.840Z,1001.94
2018-07-24T12:29:30.823Z,1001.91
2018-07-24T12:30:30.859Z,1001.91
2018-07-24T12:31:30.800Z,1001.90
2018-07-24T12:32:30.793Z,1001.91
2018-07-24T12:33:30.780Z,1001.89
2018-07-24T12:34:30.767Z,1001.89
2018-07-24T12:35:30.816Z,1001.89
2018-07-24T12:36:30.745Z,1001.88
2018-07-24T12:37:30.734Z,1001.88
2018-07-24T12:38:30.726Z,1001.88
2018-07-24T12:39:30.725Z,1001.86
2018-07-24T12:40:30.749Z,1001.87
2018-07-24T12:41:30.694Z,1001.91
2018-07-24T12:42:30.682Z,1001.90
2018-07-24T12:43:30.699Z,1001.84
2018-07-24T12:44:30.665Z,1001.86
2018-07-24T12:45:30.700Z,1001.86
2018-07-24T12:46:30.636Z,1001.91
2018-07-24T12:47:30.629Z,1001.88
2018-07-24T12:48:30.616Z,1001.87
2018-07-24T12:49:30.606Z,1001.91
2018-07-24T12:50:30.639Z,1001.89
2018-07-24T12:51:30.581Z,1001.87
2018-07-24T12:52:30.597Z,1001.83
2018-07-24T12:53:30.560Z,1001.83
2018-07-24T12:54:30.549Z,1001.84
2018-07-24T12:55:30.589Z,1001.77
2018-07-24T12:56:30.529Z,1001.80
2018-07-24T12:57:30.520Z,1001.80
2018-07-24T12:58:30.512Z,1001.75
2018-07-24T12:59:30.495Z,1001.76
2018-07-24T13:00:30.529Z,1001.76
2018-07-24T13:01:30.479Z,1001.74
2018-07-24T13:02:30.463Z,1001.78
2018-07-24T13:03:30.453Z,1001.77
2018-07-24T13:04:30.444Z,1001.76
2018-07-24T13:05:30.475Z,1001.73
2018-07-24T13:06:30.420Z,1001.73
2018-07-24T13:07:30.478Z,1001.73
2018-07-24T13:08:30.394Z,1001.71
2018-07-24T13:09:30.390Z,1001.70
2018-07-24T13:10:30.423Z,1001.68
2018-07-24T13:11:30.367Z,1001.65
2018-07-24T13:12:30.353Z,1001.63
2018-07-24T13:13:30.340Z,1001.65
2018-07-24T13:14:30.331Z,1001.57
2018-07-24T13:15:30.328Z,1001.62
2018-07-24T13:16:30.414Z,1001.61
2018-07-24T13:17:30.300Z,1001.59
2018-07-24T13:18:30.289Z,1001.58
2018-07-24T13:19:30.310Z,1001.58
2018-07-24T13:20:30.272Z,1001.54
2018-07-24T13:21:30.303Z,1001.51
2018-07-24T13:22:30.251Z,1001.49
2018-07-24T13:23:30.234Z,1001.51
